Time;durP1;ratioP1;P1;durP2;ratioP2;P2;SDS_P1;SDS_P2;PMS_P1;PMS_P2;Temp;Humidity;BMP_temperature;BMP_pressure;BME280_temperature;BME280_humidity;BME280_pressure;Samples;Min_cycle;Max_cycle;Signal;HPM_P1;HPM_P2
2022/11/14 00:00:58;;;;;;;40.20;27.53;;;;;;;;;;4468161;32;20568;-84
2022/11/14 00:03:27;;;;;;;38.13;27.03;;;;;;;;;;4468312;32;20245;-84
2022/11/14 00:05:55;;;;;;;39.80;27.80;;;;;;;;;;4468103;32;20292;-84
2022/11/14 00:08:24;;;;;;;42.00;29.93;;;;;;;;;;4468024;32;20268;-84
2022/11/14 00:10:52;;;;;;;40.17;26.17;;;;;;;;;;4468013;32;20377;-86
2022/11/14 00:13:21;;;;;;;34.80;25.73;;;;;;;;;;4468035;32;20317;-84
2022/11/14 00:15:50;;;;;;;38.13;25.00;;;;;;;;;;4467917;32;20569;-85
2022/11/14 00:18:18;;;;;;;46.27;29.17;;;;;;;;;;4468196;32;20212;-86
2022/11/14 00:20:48;;;;;;;68.00;40.90;;;;;;;;;;4467983;32;20661;-86
2022/11/14 00:23:19;;;;;;;79.13;47.37;;;;;;;;;;4467967;32;20200;-86
2022/11/14 00:25:47;;;;;;;90.07;53.00;;;;;;;;;;4468087;32;20687;-86
2022/11/14 00:28:14;;;;;;;88.90;50.57;;;;;;;;;;4470830;32;20214;-84
2022/11/14 00:30:41;;;;;;;75.90;47.13;;;;;;;;;;4470731;32;20239;-85
2022/11/14 00:33:08;;;;;;;81.60;47.63;;;;;;;;;;4470183;32;20219;-85
2022/11/14 00:35:35;;;;;;;67.80;45.10;;;;;;;;;;4470970;32;20220;-85
2022/11/14 00:38:01;;;;;;;73.77;47.87;;;;;;;;;;4470742;32;20593;-84
2022/11/14 00:40:30;;;;;;;78.60;48.23;;;;;;;;;;4470700;32;20258;-85
2022/11/14 00:42:56;;;;;;;72.17;44.13;;;;;;;;;;4470746;32;20510;-85
2022/11/14 00:45:23;;;;;;;73.47;45.50;;;;;;;;;;4470605;32;20223;-86
2022/11/14 00:47:54;;;;;;;69.30;44.07;;;;;;;;;;4470651;32;20257;-86
2022/11/14 00:50:24;;;;;;;65.77;42.63;;;;;;;;;;4470856;32;20676;-85
2022/11/14 00:52:51;;;;;;;66.60;42.63;;;;;;;;;;4470540;32;20200;-86
2022/11/14 00:55:19;;;;;;;63.23;40.43;;;;;;;;;;4470230;32;20240;-86
2022/11/14 00:57:47;;;;;;;59.13;38.57;;;;;;;;;;4470451;32;20208;-86
2022/11/14 01:00:21;;;;;;;57.43;36.17;;;;;;;;;;4470430;32;20280;-84
2022/11/14 01:02:48;;;;;;;50.83;31.03;;;;;;;;;;4470981;32;20203;-84
2022/11/14 01:05:15;;;;;;;42.27;31.43;;;;;;;;;;4470388;32;20216;-84
2022/11/14 01:07:43;;;;;;;50.50;31.10;;;;;;;;;;4470368;32;20625;-84
2022/11/14 01:10:10;;;;;;;43.03;28.63;;;;;;;;;;4470181;32;20294;-84
2022/11/14 01:12:37;;;;;;;40.40;27.07;;;;;;;;;;4470263;32;20575;-84
2022/11/14 01:15:09;;;;;;;39.27;26.63;;;;;;;;;;4470167;32;20216;-84
2022/11/14 01:17:36;;;;;;;35.17;24.20;;;;;;;;;;4470413;32;20239;-84
2022/11/14 01:20:04;;;;;;;40.03;23.43;;;;;;;;;;4470113;32;20212;-84
2022/11/14 01:22:30;;;;;;;38.00;25.27;;;;;;;;;;4470103;32;20222;-84
2022/11/14 01:24:57;;;;;;;40.07;26.90;;;;;;;;;;4470387;32;20264;-84
2022/11/14 01:27:24;;;;;;;54.17;35.60;;;;;;;;;;4470018;32;20204;-84
2022/11/14 01:29:51;;;;;;;68.30;41.77;;;;;;;;;;4470259;32;20215;-84
2022/11/14 01:32:21;;;;;;;59.40;38.60;;;;;;;;;;4469957;32;20218;-84
2022/11/14 01:34:50;;;;;;;69.80;43.47;;;;;;;;;;4469828;32;20312;-84
2022/11/14 01:37:16;;;;;;;66.53;45.57;;;;;;;;;;4469855;32;20306;-86
2022/11/14 01:39:46;;;;;;;71.70;46.03;;;;;;;;;;4470307;32;20231;-84
2022/11/14 01:42:13;;;;;;;82.23;46.67;;;;;;;;;;4470359;32;20203;-84
2022/11/14 01:44:48;;;;;;;82.70;48.63;;;;;;;;;;4470100;32;20264;-84
2022/11/14 01:47:19;;;;;;;94.53;53.53;;;;;;;;;;4469973;32;20227;-84
2022/11/14 01:49:51;;;;;;;122.27;60.33;;;;;;;;;;4470255;32;20216;-86
2022/11/14 01:52:22;;;;;;;113.37;62.17;;;;;;;;;;4469983;32;20212;-84
2022/11/14 01:54:51;;;;;;;102.77;61.10;;;;;;;;;;4469727;32;20234;-84
2022/11/14 01:57:22;;;;;;;112.30;59.53;;;;;;;;;;4469614;32;20216;-84
2022/11/14 01:59:53;;;;;;;101.27;56.27;;;;;;;;;;4469877;32;20245;-84
2022/11/14 02:02:21;;;;;;;96.73;57.53;;;;;;;;;;4469815;32;20304;-84
2022/11/14 02:04:57;;;;;;;94.37;57.37;;;;;;;;;;4469451;32;20239;-84
2022/11/14 02:07:27;;;;;;;95.93;56.40;;;;;;;;;;4469809;32;20651;-84
2022/11/14 02:09:56;;;;;;;87.37;54.63;;;;;;;;;;4469438;32;20597;-84
2022/11/14 02:12:25;;;;;;;92.40;56.73;;;;;;;;;;4469720;32;20232;-84
2022/11/14 02:14:55;;;;;;;96.60;55.60;;;;;;;;;;4469452;32;20216;-85
2022/11/14 02:17:23;;;;;;;96.60;54.90;;;;;;;;;;4469301;32;20226;-86
2022/11/14 02:19:56;;;;;;;88.30;50.63;;;;;;;;;;4469118;32;20243;-84
2022/11/14 02:22:24;;;;;;;78.90;47.83;;;;;;;;;;4468300;32;20211;-85
2022/11/14 02:24:51;;;;;;;83.97;48.53;;;;;;;;;;4469265;32;20236;-85
2022/11/14 02:27:19;;;;;;;74.73;43.63;;;;;;;;;;4469172;32;20557;-84
2022/11/14 02:29:46;;;;;;;77.23;44.83;;;;;;;;;;4467994;32;20224;-86
2022/11/14 02:32:13;;;;;;;63.20;43.50;;;;;;;;;;4469061;32;20205;-84
2022/11/14 02:34:40;;;;;;;73.20;43.83;;;;;;;;;;4469038;32;20735;-84
2022/11/14 02:37:09;;;;;;;67.73;43.37;;;;;;;;;;4469711;32;20612;-84
2022/11/14 02:39:37;;;;;;;64.93;40.20;;;;;;;;;;4468913;32;20323;-84
2022/11/14 02:42:05;;;;;;;51.10;34.87;;;;;;;;;;4468943;32;20192;-85
2022/11/14 02:44:32;;;;;;;50.43;31.07;;;;;;;;;;4469227;32;20246;-86
2022/11/14 02:46:59;;;;;;;55.80;32.93;;;;;;;;;;4468932;32;20201;-85
2022/11/14 02:49:26;;;;;;;56.23;33.20;;;;;;;;;;4468155;32;20697;-86
2022/11/14 02:51:56;;;;;;;53.03;31.57;;;;;;;;;;4469174;32;20601;-85
2022/11/14 02:54:23;;;;;;;42.27;30.97;;;;;;;;;;4468890;32;20299;-85
2022/11/14 02:56:52;;;;;;;48.40;30.40;;;;;;;;;;4468743;32;20361;-85
2022/11/14 02:59:19;;;;;;;43.10;28.47;;;;;;;;;;4468881;32;20246;-85
2022/11/14 03:01:48;;;;;;;50.37;30.80;;;;;;;;;;4468809;32;20553;-84
2022/11/14 03:04:18;;;;;;;34.60;25.70;;;;;;;;;;4468823;32;20254;-85
2022/11/14 03:06:45;;;;;;;37.90;26.00;;;;;;;;;;4468543;32;20208;-85
2022/11/14 03:09:12;;;;;;;41.37;27.43;;;;;;;;;;4468672;32;20253;-84
2022/11/14 03:11:41;;;;;;;37.40;26.33;;;;;;;;;;4469035;32;20605;-85
2022/11/14 03:14:09;;;;;;;37.17;25.00;;;;;;;;;;4468662;32;20215;-85
2022/11/14 03:16:36;;;;;;;36.27;24.40;;;;;;;;;;4468761;32;20302;-86
2022/11/14 03:19:03;;;;;;;42.90;25.23;;;;;;;;;;4468888;32;20253;-86
2022/11/14 03:21:30;;;;;;;32.63;22.57;;;;;;;;;;4468321;32;20295;-85
2022/11/14 03:23:57;;;;;;;35.40;23.13;;;;;;;;;;4468425;32;20287;-85
2022/11/14 03:26:26;;;;;;;35.73;23.03;;;;;;;;;;4467254;32;20687;-86
2022/11/14 03:28:54;;;;;;;29.27;21.13;;;;;;;;;;4468640;32;20270;-86
2022/11/14 03:31:22;;;;;;;31.63;20.70;;;;;;;;;;4468377;32;20283;-85
2022/11/14 03:33:52;;;;;;;22.53;17.23;;;;;;;;;;4468289;32;20658;-86
2022/11/14 03:36:18;;;;;;;30.60;20.57;;;;;;;;;;4467191;32;20568;-85
2022/11/14 03:38:45;;;;;;;38.33;27.57;;;;;;;;;;4468240;32;20215;-86
2022/11/14 03:41:12;;;;;;;78.87;47.10;;;;;;;;;;4468184;32;20216;-86
2022/11/14 03:43:39;;;;;;;65.77;39.63;;;;;;;;;;4468938;32;20200;-86
2022/11/14 03:46:06;;;;;;;62.63;38.00;;;;;;;;;;4468169;32;20223;-86
2022/11/14 03:48:34;;;;;;;57.87;34.70;;;;;;;;;;4468123;32;20211;-85
2022/11/14 03:51:02;;;;;;;64.87;40.23;;;;;;;;;;4468207;32;20238;-85
2022/11/14 03:53:29;;;;;;;66.90;41.20;;;;;;;;;;4468025;32;20222;-85
2022/11/14 03:55:55;;;;;;;63.23;39.67;;;;;;;;;;4468365;32;20220;-85
2022/11/14 03:58:22;;;;;;;75.13;41.40;;;;;;;;;;4468899;32;20238;-85
2022/11/14 04:00:49;;;;;;;69.43;41.37;;;;;;;;;;4469041;32;20238;-85
2022/11/14 04:03:16;;;;;;;78.00;43.37;;;;;;;;;;4471332;32;20200;-85
2022/11/14 04:05:47;;;;;;;91.00;51.17;;;;;;;;;;4471226;32;20598;-85
2022/11/14 04:08:14;;;;;;;88.30;48.87;;;;;;;;;;4471698;32;20196;-85
2022/11/14 04:10:41;;;;;;;87.73;52.93;;;;;;;;;;4471513;32;20588;-85
2022/11/14 04:13:09;;;;;;;74.90;46.40;;;;;;;;;;4471887;32;20212;-86
2022/11/14 04:15:35;;;;;;;66.27;41.63;;;;;;;;;;4471062;32;20223;-85
2022/11/14 04:18:05;;;;;;;69.13;40.30;;;;;;;;;;4471366;32;20212;-85
2022/11/14 04:20:32;;;;;;;72.83;42.47;;;;;;;;;;4471459;32;20669;-86
2022/11/14 04:23:01;;;;;;;73.27;41.30;;;;;;;;;;4471100;32;20218;-86
2022/11/14 04:25:28;;;;;;;72.00;40.47;;;;;;;;;;4471355;32;20224;-85
2022/11/14 04:27:54;;;;;;;78.83;39.07;;;;;;;;;;4471616;32;20299;-86
2022/11/14 04:30:21;;;;;;;82.63;41.93;;;;;;;;;;4470873;32;20220;-86
2022/11/14 04:32:48;;;;;;;79.33;41.17;;;;;;;;;;4471141;32;20260;-86
2022/11/14 04:35:15;;;;;;;68.13;39.40;;;;;;;;;;4470732;32;20204;-86
2022/11/14 04:37:45;;;;;;;67.60;38.53;;;;;;;;;;4471343;32;20616;-85
2022/11/14 04:40:20;;;;;;;62.13;34.50;;;;;;;;;;4470876;32;20248;-85
2022/11/14 04:42:49;;;;;;;57.43;36.27;;;;;;;;;;4471333;32;20199;-86
2022/11/14 04:45:16;;;;;;;56.47;31.07;;;;;;;;;;4470942;32;20204;-86
2022/11/14 04:47:43;;;;;;;48.53;30.50;;;;;;;;;;4470571;32;20221;-85
2022/11/14 04:50:11;;;;;;;41.27;26.27;;;;;;;;;;4470493;32;20703;-85
2022/11/14 04:52:38;;;;;;;42.50;25.80;;;;;;;;;;4470981;32;20632;-85
2022/11/14 04:55:05;;;;;;;44.40;26.87;;;;;;;;;;4470279;32;20626;-85
2022/11/14 04:57:33;;;;;;;42.20;26.27;;;;;;;;;;4470661;32;20287;-85
2022/11/14 05:00:00;;;;;;;49.00;29.97;;;;;;;;;;4470396;32;20283;-85
2022/11/14 05:02:27;;;;;;;71.93;40.33;;;;;;;;;;4470328;32;20216;-86
2022/11/14 05:04:55;;;;;;;95.33;49.17;;;;;;;;;;4470627;32;20208;-85
2022/11/14 05:07:28;;;;;;;82.20;45.50;;;;;;;;;;4470324;32;20262;-86
2022/11/14 05:09:55;;;;;;;71.93;38.37;;;;;;;;;;4470615;32;20212;-85
2022/11/14 05:12:24;;;;;;;84.83;43.07;;;;;;;;;;4469792;32;20587;-85
2022/11/14 05:14:53;;;;;;;93.60;46.67;;;;;;;;;;4470915;32;20233;-85
2022/11/14 05:17:20;;;;;;;83.53;45.70;;;;;;;;;;4470125;32;20224;-85
2022/11/14 05:19:47;;;;;;;99.87;46.43;;;;;;;;;;4469013;32;20224;-85
2022/11/14 05:22:16;;;;;;;93.27;47.47;;;;;;;;;;4470074;32;20319;-85
2022/11/14 05:24:43;;;;;;;85.63;42.03;;;;;;;;;;4470026;32;20272;-85
2022/11/14 05:27:09;;;;;;;90.30;41.77;;;;;;;;;;4469993;32;20215;-85
2022/11/14 05:29:36;;;;;;;92.57;45.47;;;;;;;;;;4470274;32;20208;-85
2022/11/14 05:32:05;;;;;;;104.10;52.03;;;;;;;;;;4469929;32;20272;-86
2022/11/14 05:34:32;;;;;;;102.43;52.90;;;;;;;;;;4470362;32;20223;-85
2022/11/14 05:36:59;;;;;;;146.57;74.30;;;;;;;;;;4469736;32;20238;-85
2022/11/14 05:39:26;;;;;;;145.07;75.07;;;;;;;;;;4469692;32;20216;-85
2022/11/14 05:41:52;;;;;;;137.60;68.70;;;;;;;;;;4469407;32;20666;-86
2022/11/14 05:44:30;;;;;;;144.17;70.47;;;;;;;;;;4469536;32;20209;-85
2022/11/14 05:46:56;;;;;;;146.00;67.67;;;;;;;;;;4469980;32;20514;-85
2022/11/14 05:49:27;;;;;;;153.00;71.73;;;;;;;;;;4469414;32;20216;-85
2022/11/14 05:51:56;;;;;;;159.10;74.70;;;;;;;;;;4470195;32;20200;-84
2022/11/14 05:54:23;;;;;;;186.27;84.93;;;;;;;;;;4468884;32;20231;-85
2022/11/14 05:56:50;;;;;;;210.70;90.43;;;;;;;;;;4469523;32;20506;-85
2022/11/14 05:59:19;;;;;;;191.03;88.33;;;;;;;;;;4468389;32;20656;-85
2022/11/14 06:01:48;;;;;;;210.17;95.40;;;;;;;;;;4468772;32;20204;-85
2022/11/14 06:04:15;;;;;;;190.17;86.03;;;;;;;;;;4468200;32;20264;-85
2022/11/14 06:06:47;;;;;;;194.17;84.50;;;;;;;;;;4471193;32;20215;-85
2022/11/14 06:09:13;;;;;;;198.60;89.83;;;;;;;;;;4471200;32;20200;-86
2022/11/14 06:11:40;;;;;;;193.47;87.90;;;;;;;;;;4469850;32;20303;-85
2022/11/14 06:14:08;;;;;;;186.10;88.63;;;;;;;;;;4469465;32;20234;-85
2022/11/14 06:16:35;;;;;;;208.27;96.40;;;;;;;;;;4469576;32;20220;-85
2022/11/14 06:19:04;;;;;;;212.80;95.87;;;;;;;;;;4470003;32;20212;-86
2022/11/14 06:21:33;;;;;;;175.53;83.40;;;;;;;;;;4470629;32;20232;-87
2022/11/14 06:24:02;;;;;;;136.50;67.87;;;;;;;;;;4467692;32;20299;-86
2022/11/14 06:26:33;;;;;;;112.30;56.60;;;;;;;;;;4469408;32;20220;-85
2022/11/14 06:29:00;;;;;;;84.20;43.80;;;;;;;;;;4470029;32;20215;-86
2022/11/14 06:31:28;;;;;;;55.30;33.33;;;;;;;;;;4469099;32;20234;-85
2022/11/14 06:33:55;;;;;;;40.00;28.73;;;;;;;;;;4469060;32;20690;-85
2022/11/14 06:36:23;;;;;;;45.00;25.93;;;;;;;;;;4468298;32;20546;-87
2022/11/14 06:38:49;;;;;;;35.03;24.23;;;;;;;;;;4468586;32;20295;-87
2022/11/14 06:41:21;;;;;;;33.70;23.63;;;;;;;;;;4468490;32;20625;-87
2022/11/14 06:43:53;;;;;;;37.23;23.50;;;;;;;;;;4469548;32;20203;-86
2022/11/14 06:46:22;;;;;;;41.23;28.03;;;;;;;;;;4468678;32;20196;-86
2022/11/14 06:48:50;;;;;;;46.07;29.10;;;;;;;;;;4468444;32;20374;-86
2022/11/14 06:51:18;;;;;;;54.10;30.23;;;;;;;;;;4468795;32;20215;-85
2022/11/14 06:53:45;;;;;;;51.40;31.17;;;;;;;;;;4469106;32;20241;-86
2022/11/14 06:56:13;;;;;;;54.70;34.73;;;;;;;;;;4468884;32;20271;-85
2022/11/14 06:58:45;;;;;;;57.60;35.13;;;;;;;;;;4468916;32;20206;-86
2022/11/14 07:01:13;;;;;;;54.07;33.03;;;;;;;;;;4468957;32;20293;-86
2022/11/14 07:03:41;;;;;;;57.07;34.13;;;;;;;;;;4469035;32;20228;-86
2022/11/14 07:06:09;;;;;;;62.73;39.80;;;;;;;;;;4469244;32;20203;-85
2022/11/14 07:08:36;;;;;;;67.10;41.03;;;;;;;;;;4468658;32;20200;-85
2022/11/14 07:11:03;;;;;;;75.63;47.27;;;;;;;;;;4468884;32;20719;-86
2022/11/14 07:13:34;;;;;;;66.60;44.00;;;;;;;;;;4468340;32;20652;-85
2022/11/14 07:16:04;;;;;;;69.00;42.30;;;;;;;;;;4468786;32;20275;-85
2022/11/14 07:18:32;;;;;;;64.00;42.37;;;;;;;;;;4468715;32;20335;-86
2022/11/14 07:21:01;;;;;;;60.13;40.13;;;;;;;;;;4470187;32;20238;-86
2022/11/14 07:23:29;;;;;;;65.73;39.03;;;;;;;;;;4468032;32;20221;-86
2022/11/14 07:25:56;;;;;;;61.47;38.07;;;;;;;;;;4468156;32;20222;-85
2022/11/14 07:28:22;;;;;;;57.70;37.87;;;;;;;;;;4468025;32;20644;-86
2022/11/14 07:30:52;;;;;;;66.77;38.80;;;;;;;;;;4468014;32;20196;-85
2022/11/14 07:33:20;;;;;;;62.30;36.90;;;;;;;;;;4467365;32;20258;-86
2022/11/14 07:35:50;;;;;;;55.73;36.97;;;;;;;;;;4467560;32;20200;-86
2022/11/14 07:38:19;;;;;;;60.13;37.13;;;;;;;;;;4468828;32;20318;-86
2022/11/14 07:40:53;;;;;;;56.17;37.80;;;;;;;;;;4468154;32;20237;-86
2022/11/14 07:43:20;;;;;;;56.93;35.87;;;;;;;;;;4467831;32;20219;-86
2022/11/14 07:45:47;;;;;;;54.27;36.27;;;;;;;;;;4467784;32;20200;-86
2022/11/14 07:48:16;;;;;;;60.80;37.37;;;;;;;;;;4467946;32;20208;-86
2022/11/14 07:50:46;;;;;;;66.73;41.40;;;;;;;;;;4468036;32;20208;-86
2022/11/14 07:53:14;;;;;;;60.23;40.73;;;;;;;;;;4467482;32;20212;-85
2022/11/14 07:55:41;;;;;;;61.83;40.93;;;;;;;;;;4468156;32;20215;-85
2022/11/14 07:58:09;;;;;;;59.20;38.27;;;;;;;;;;4467824;32;20209;-86
2022/11/14 08:00:36;;;;;;;48.27;32.77;;;;;;;;;;4467626;32;20674;-86
2022/11/14 08:03:03;;;;;;;47.40;34.40;;;;;;;;;;4468051;32;20279;-86
2022/11/14 08:05:30;;;;;;;61.07;39.17;;;;;;;;;;4467500;32;20223;-87
2022/11/14 08:07:58;;;;;;;48.33;34.00;;;;;;;;;;4468846;32;20200;-85
2022/11/14 08:10:29;;;;;;;55.73;34.50;;;;;;;;;;4470009;32;20262;-87
2022/11/14 08:12:59;;;;;;;56.13;35.70;;;;;;;;;;4468672;32;20544;-87
2022/11/14 08:15:27;;;;;;;53.40;35.63;;;;;;;;;;4468044;32;20220;-86
2022/11/14 08:17:57;;;;;;;68.03;41.30;;;;;;;;;;4467973;32;20222;-86
2022/11/14 08:20:27;;;;;;;56.67;35.20;;;;;;;;;;4467266;32;20245;-86
2022/11/14 08:22:56;;;;;;;54.23;34.73;;;;;;;;;;4467175;32;20510;-86
2022/11/14 08:25:24;;;;;;;53.17;33.60;;;;;;;;;;4467031;32;20287;-87
2022/11/14 08:27:53;;;;;;;52.90;34.60;;;;;;;;;;4467047;32;20576;-87
2022/11/14 08:30:20;;;;;;;45.23;33.50;;;;;;;;;;4467402;32;20239;-86
2022/11/14 08:32:47;;;;;;;57.67;32.27;;;;;;;;;;4467205;32;20216;-86
2022/11/14 08:35:14;;;;;;;45.60;30.57;;;;;;;;;;4466016;32;20288;-86
2022/11/14 08:37:41;;;;;;;55.73;30.63;;;;;;;;;;4467773;32;20243;-86
2022/11/14 08:40:09;;;;;;;50.27;32.80;;;;;;;;;;4467136;32;20682;-86
2022/11/14 08:42:37;;;;;;;50.33;32.50;;;;;;;;;;4467035;32;20231;-86
2022/11/14 08:45:05;;;;;;;41.93;28.80;;;;;;;;;;4467150;32;20224;-86
2022/11/14 08:47:32;;;;;;;42.20;29.77;;;;;;;;;;4467567;32;20196;-86
2022/11/14 08:50:17;;;;;;;42.13;28.27;;;;;;;;;;4470301;32;20224;-87
2022/11/14 08:52:49;;;;;;;42.70;28.67;;;;;;;;;;4471240;32;20200;-86
2022/11/14 08:55:16;;;;;;;49.10;29.30;;;;;;;;;;4471188;32;20228;-84
2022/11/14 08:57:45;;;;;;;45.23;31.10;;;;;;;;;;4470800;32;20704;-85
2022/11/14 09:00:12;;;;;;;45.10;29.97;;;;;;;;;;4470051;32;20377;-85
2022/11/14 09:02:40;;;;;;;44.40;29.97;;;;;;;;;;4469876;32;20208;-85
2022/11/14 09:05:08;;;;;;;42.00;29.97;;;;;;;;;;4469047;32;20235;-85
2022/11/14 09:07:35;;;;;;;40.73;29.13;;;;;;;;;;4469939;32;20283;-87
2022/11/14 09:10:02;;;;;;;38.87;28.73;;;;;;;;;;4469905;32;20275;-86
2022/11/14 09:12:28;;;;;;;36.80;28.10;;;;;;;;;;4469849;32;20196;-85
2022/11/14 09:15:15;;;;;;;41.40;29.83;;;;;;;;;;4469574;32;20223;-85
2022/11/14 09:17:42;;;;;;;38.63;27.83;;;;;;;;;;4470792;32;20506;-84
2022/11/14 09:20:09;;;;;;;38.63;27.90;;;;;;;;;;4469726;32;20250;-84
2022/11/14 09:22:36;;;;;;;40.67;28.33;;;;;;;;;;4470134;32;20246;-83
2022/11/14 09:25:04;;;;;;;41.93;29.17;;;;;;;;;;4469968;32;20389;-83
2022/11/14 09:27:33;;;;;;;36.27;26.77;;;;;;;;;;4470979;32;20315;-84
2022/11/14 09:30:00;;;;;;;42.10;28.33;;;;;;;;;;4469893;32;20269;-84
2022/11/14 09:32:29;;;;;;;42.60;28.00;;;;;;;;;;4470288;32;20196;-85
2022/11/14 09:34:56;;;;;;;37.67;26.30;;;;;;;;;;4470044;32;20663;-84
2022/11/14 09:37:23;;;;;;;46.13;30.00;;;;;;;;;;4469282;32;20267;-85
2022/11/14 09:39:51;;;;;;;44.70;29.67;;;;;;;;;;4470448;32;20230;-84
2022/11/14 09:42:36;;;;;;;44.20;29.10;;;;;;;;;;4470073;32;20234;-85
2022/11/14 09:45:06;;;;;;;50.43;30.57;;;;;;;;;;4469474;32;20274;-85
2022/11/14 09:47:41;;;;;;;37.37;26.47;;;;;;;;;;4469926;32;20260;-85
2022/11/14 09:50:13;;;;;;;43.13;26.90;;;;;;;;;;4469279;32;20230;-86
2022/11/14 09:52:44;;;;;;;39.77;26.60;;;;;;;;;;4469302;32;20228;-85
2022/11/14 09:55:17;;;;;;;29.27;22.77;;;;;;;;;;4468870;32;20216;-85
2022/11/14 09:57:46;;;;;;;29.33;21.10;;;;;;;;;;4469122;32;20656;-85
2022/11/14 10:00:15;;;;;;;32.37;21.10;;;;;;;;;;4468876;32;20332;-85
2022/11/14 10:03:09;;;;;;;34.07;22.27;;;;;;;;;;4469199;32;20238;-85
2022/11/14 10:05:58;;;;;;;35.03;21.93;;;;;;;;;;4469598;32;20665;-85
2022/11/14 10:08:37;;;;;;;32.53;22.60;;;;;;;;;;4469390;32;20216;-86
2022/11/14 10:11:10;;;;;;;36.57;23.47;;;;;;;;;;4469237;32;20274;-86
2022/11/14 10:14:04;;;;;;;31.17;21.63;;;;;;;;;;4469460;32;20249;-87
2022/11/14 10:16:42;;;;;;;32.23;22.97;;;;;;;;;;4469767;32;20199;-86
2022/11/14 10:19:20;;;;;;;35.20;22.50;;;;;;;;;;4469183;32;20704;-85
2022/11/14 10:22:01;;;;;;;35.10;21.60;;;;;;;;;;4468511;32;20224;-86
2022/11/14 10:24:45;;;;;;;22.77;19.37;;;;;;;;;;4468411;32;20212;-86
2022/11/14 10:27:18;;;;;;;33.67;20.80;;;;;;;;;;4469374;32;20632;-86
2022/11/14 10:30:04;;;;;;;27.47;19.87;;;;;;;;;;4469151;32;20212;-85
2022/11/14 10:32:46;;;;;;;36.17;21.13;;;;;;;;;;4469355;32;20263;-86
2022/11/14 10:35:21;;;;;;;31.67;22.77;;;;;;;;;;4469320;32;20230;-86
2022/11/14 10:38:02;;;;;;;30.00;21.63;;;;;;;;;;4468723;32;20227;-86
2022/11/14 10:40:38;;;;;;;31.13;21.67;;;;;;;;;;4468480;32;20242;-87
2022/11/14 10:43:21;;;;;;;35.10;23.13;;;;;;;;;;4468703;32;20215;-86
2022/11/14 10:45:54;;;;;;;33.53;22.23;;;;;;;;;;4469591;32;20290;-86
2022/11/14 10:48:30;;;;;;;30.50;19.10;;;;;;;;;;4468877;32;20207;-85
2022/11/14 10:51:03;;;;;;;35.87;23.07;;;;;;;;;;4468488;32;20295;-86
2022/11/14 10:53:41;;;;;;;31.50;22.10;;;;;;;;;;4468139;32;20233;-86
2022/11/14 10:56:11;;;;;;;28.77;19.07;;;;;;;;;;4468577;32;20233;-85
2022/11/14 10:58:38;;;;;;;25.53;19.00;;;;;;;;;;4468632;32;20256;-87
2022/11/14 11:01:39;;;;;;;33.67;20.77;;;;;;;;;;4468773;32;20232;-86
2022/11/14 11:04:22;;;;;;;28.67;19.23;;;;;;;;;;4468055;32;20234;-86
2022/11/14 11:06:52;;;;;;;24.97;18.90;;;;;;;;;;4468495;32;20628;-86
2022/11/14 11:12:06;;;;;;;27.60;19.73;;;;;;;;;;4467536;32;20237;-86
2022/11/14 11:14:35;;;;;;;35.57;22.63;;;;;;;;;;4467666;32;20356;-87
2022/11/14 11:17:20;;;;;;;32.90;19.70;;;;;;;;;;4468239;32;20201;-87
2022/11/14 11:19:48;;;;;;;29.63;21.37;;;;;;;;;;4468420;32;20234;-85
2022/11/14 11:22:31;;;;;;;33.57;20.63;;;;;;;;;;4467256;32;20246;-86
2022/11/14 11:24:57;;;;;;;39.93;25.67;;;;;;;;;;4467995;32;20223;-87
2022/11/14 11:27:27;;;;;;;34.00;20.77;;;;;;;;;;4467367;32;20305;-90
2022/11/14 11:30:08;;;;;;;29.47;21.90;;;;;;;;;;4467490;32;20216;-87
2022/11/14 11:32:42;;;;;;;31.10;22.93;;;;;;;;;;4467419;32;20260;-85
2022/11/14 11:35:13;;;;;;;31.67;21.77;;;;;;;;;;4468156;32;20298;-86
2022/11/14 11:37:47;;;;;;;34.57;22.60;;;;;;;;;;4467207;32;20232;-87
2022/11/14 11:40:21;;;;;;;28.20;21.93;;;;;;;;;;4467798;32;20387;-85
2022/11/14 11:42:59;;;;;;;29.00;19.63;;;;;;;;;;4467628;32;20235;-85
2022/11/14 11:45:28;;;;;;;29.27;19.73;;;;;;;;;;4467704;32;20219;-84
2022/11/14 11:47:58;;;;;;;26.60;20.47;;;;;;;;;;4467313;32;20736;-87
2022/11/14 11:50:28;;;;;;;34.73;20.27;;;;;;;;;;4467924;32;20526;-86
2022/11/14 11:53:12;;;;;;;29.73;18.77;;;;;;;;;;4467786;32;20569;-85
2022/11/14 11:55:51;;;;;;;29.87;20.03;;;;;;;;;;4437029;32;20201;-85
2022/11/14 11:58:23;;;;;;;28.43;19.37;;;;;;;;;;4436106;32;20256;-88
2022/11/14 12:00:54;;;;;;;22.03;18.97;;;;;;;;;;4436517;32;20209;-85
2022/11/14 12:03:24;;;;;;;26.87;19.40;;;;;;;;;;4436210;32;20212;-87
2022/11/14 12:06:03;;;;;;;28.53;18.73;;;;;;;;;;4436091;32;20637;-85
2022/11/14 12:08:47;;;;;;;24.47;18.43;;;;;;;;;;4423524;32;20566;-87
2022/11/14 12:11:20;;;;;;;28.67;19.90;;;;;;;;;;4436518;32;20481;-85
2022/11/14 12:14:09;;;;;;;30.80;19.60;;;;;;;;;;4436708;32;20201;-85
2022/11/14 12:16:58;;;;;;;23.80;18.77;;;;;;;;;;4436198;32;20261;-84
2022/11/14 12:19:59;;;;;;;32.30;18.97;;;;;;;;;;4436307;32;20332;-85
2022/11/14 12:22:59;;;;;;;20.63;17.27;;;;;;;;;;4428460;32;20254;-84
2022/11/14 12:25:45;;;;;;;24.27;19.60;;;;;;;;;;4439230;32;20231;-85
2022/11/14 12:28:27;;;;;;;31.63;21.73;;;;;;;;;;4439884;32;20213;-85
2022/11/14 12:30:58;;;;;;;34.67;24.53;;;;;;;;;;4440271;32;20193;-85
2022/11/14 12:33:30;;;;;;;31.00;21.50;;;;;;;;;;4439782;32;20632;-85
2022/11/14 12:35:59;;;;;;;23.97;17.93;;;;;;;;;;4439865;32;20201;-85
2022/11/14 12:38:34;;;;;;;24.30;17.60;;;;;;;;;;4439687;32;20221;-85
2022/11/14 12:41:02;;;;;;;21.60;18.20;;;;;;;;;;4440089;32;20227;-85
2022/11/14 12:43:34;;;;;;;30.30;19.17;;;;;;;;;;4439701;32;20220;-85
2022/11/14 12:46:07;;;;;;;31.10;17.70;;;;;;;;;;4439944;32;20219;-87
2022/11/14 12:48:38;;;;;;;26.40;17.00;;;;;;;;;;4440397;32;20201;-85
2022/11/14 12:51:26;;;;;;;23.03;17.00;;;;;;;;;;4439870;32;20275;-85
2022/11/14 12:53:55;;;;;;;29.80;17.70;;;;;;;;;;4448164;32;20216;-85
2022/11/14 12:57:02;;;;;;;33.23;20.90;;;;;;;;;;4470015;32;20232;-85
2022/11/14 12:59:38;;;;;;;36.43;22.83;;;;;;;;;;4470738;32;20212;-85
2022/11/14 13:02:42;;;;;;;26.07;18.87;;;;;;;;;;4470349;32;20627;-85
2022/11/14 13:05:24;;;;;;;24.67;16.63;;;;;;;;;;4470962;32;20215;-85
2022/11/14 13:08:16;;;;;;;21.53;15.17;;;;;;;;;;4470357;32;20212;-84
2022/11/14 13:10:43;;;;;;;27.57;18.43;;;;;;;;;;4470689;32;20196;-85
2022/11/14 13:21:46;;;;;;;18.40;12.80;;;;;;;;;;4469734;32;20235;-85
2022/11/14 13:24:19;;;;;;;28.27;16.27;;;;;;;;;;4470552;32;20696;-85
2022/11/14 13:26:53;;;;;;;18.43;14.03;;;;;;;;;;4470061;32;20577;-86
2022/11/14 13:29:49;;;;;;;19.40;13.97;;;;;;;;;;4470467;32;20196;-85
2022/11/14 13:32:55;;;;;;;16.97;12.63;;;;;;;;;;4469925;32;20649;-87
2022/11/14 13:35:32;;;;;;;24.23;14.20;;;;;;;;;;4470309;32;20252;-85
2022/11/14 13:38:44;;;;;;;18.23;13.17;;;;;;;;;;4470458;32;20225;-86
2022/11/14 13:41:30;;;;;;;18.00;15.10;;;;;;;;;;4440941;32;20223;-85
2022/11/14 13:44:16;;;;;;;18.40;15.37;;;;;;;;;;4469970;32;20262;-84
2022/11/14 13:47:03;;;;;;;21.93;15.33;;;;;;;;;;4469912;32;20205;-85
2022/11/14 13:49:47;;;;;;;23.47;16.27;;;;;;;;;;4470204;32;20261;-85
2022/11/14 13:52:14;;;;;;;33.97;17.00;;;;;;;;;;4469640;32;20208;-85
2022/11/14 13:54:46;;;;;;;30.77;15.50;;;;;;;;;;4469643;32;20238;-85
2022/11/14 13:57:20;;;;;;;25.87;17.23;;;;;;;;;;4469787;32;20215;-84
2022/11/14 14:00:05;;;;;;;30.07;18.47;;;;;;;;;;4469374;32;20200;-87
2022/11/14 14:02:58;;;;;;;30.00;17.00;;;;;;;;;;4469962;32;20280;-87
2022/11/14 14:05:34;;;;;;;35.13;17.93;;;;;;;;;;4470185;32;20761;-84
2022/11/14 14:08:19;;;;;;;24.57;16.53;;;;;;;;;;4470162;32;20200;-86
2022/11/14 14:10:58;;;;;;;41.17;19.63;;;;;;;;;;4468465;32;20228;-85
2022/11/14 14:13:39;;;;;;;27.57;20.77;;;;;;;;;;4469996;32;20271;-86
2022/11/14 14:16:13;;;;;;;39.73;22.23;;;;;;;;;;4469396;32;20208;-86
2022/11/14 14:18:59;;;;;;;35.70;22.33;;;;;;;;;;4469929;32;20214;-85
2022/11/14 14:21:37;;;;;;;42.43;23.50;;;;;;;;;;4469400;32;20248;-84
2022/11/14 14:24:17;;;;;;;41.53;25.93;;;;;;;;;;4469955;32;20537;-86
2022/11/14 14:27:00;;;;;;;42.23;27.00;;;;;;;;;;4469137;32;20220;-84
2022/11/14 14:29:38;;;;;;;55.60;28.97;;;;;;;;;;4469449;32;20200;-85
2022/11/14 14:32:12;;;;;;;49.27;30.43;;;;;;;;;;4469064;32;20369;-86
2022/11/14 14:34:41;;;;;;;47.30;31.50;;;;;;;;;;4469519;32;20197;-87
2022/11/14 14:37:18;;;;;;;53.53;31.83;;;;;;;;;;4468954;32;20216;-85
2022/11/14 14:39:57;;;;;;;55.93;35.30;;;;;;;;;;4469521;32;20275;-86
2022/11/14 14:45:18;;;;;;;45.23;26.07;;;;;;;;;;4468249;32;20281;-85
2022/11/14 14:47:49;;;;;;;35.30;20.20;;;;;;;;;;4468411;32;20627;-85
2022/11/14 14:50:21;;;;;;;38.43;21.13;;;;;;;;;;4467562;32;20236;-85
2022/11/14 14:52:56;;;;;;;42.37;21.27;;;;;;;;;;4469377;32;20282;-85
2022/11/14 14:55:26;;;;;;;44.17;23.43;;;;;;;;;;4468650;32;20567;-85